EDT,Max TemperatureF,Mean TemperatureF,Min TemperatureF,Max Dew PointF,MeanDew PointF,Min DewpointF,Max Humidity, Mean Humidity, Min Humidity, Max Sea Level PressureIn, Mean Sea Level PressureIn, Min Sea Level PressureIn, Max VisibilityMiles, Mean VisibilityMiles, Min VisibilityMiles, Max Wind SpeedMPH, Mean Wind SpeedMPH, Max Gust SpeedMPH,PrecipitationIn, CloudCover, Events, WindDirDegrees
2013-8-1,76,70,63,64,59,54,95,72,46,30.10,30.06,30.03,10,9,0,13,4,20,0.05,6,Rain,302
2013-8-2,77,68,58,58,54,49,93,62,38,30.17,30.13,30.07,10,10,2,10,3,,0.00,0,,298
2013-8-3,78,70,61,61,58,54,92,70,43,30.17,30.13,30.09,10,10,7,13,3,18,0.00,3,Rain,265
2013-8-4,74,69,63,55,52,48,73,55,39,30.18,30.12,30.08,10,10,2,16,6,24,0.45,4,Rain,313
2013-8-5,71,64,58,64,58,53,94,77,62,30.19,30.15,30.11,10,9,2,7,1,,0.00,7,,136
2013-8-6,73,68,63,65,62,55,94,82,54,30.16,30.12,30.08,10,8,2,7,1,,0.00,8,,157
2013-8-7,69,66,63,66,64,62,94,92,85,30.20,30.16,30.14,10,5,0,5,1,,0.03,8,Fog-Rain,140
2013-8-8,73,68,64,69,66,64,95,90,79,30.19,30.16,30.14,10,5,0,6,1,,0.27,7,Fog-Rain,138
2013-8-9,82,74,66,68,64,61,93,78,51,30.20,30.17,30.13,10,8,2,13,2,20,0.03,4,Rain,251
2013-8-10,80,72,64,66,64,62,94,80,56,30.25,30.22,30.19,10,9,0,18,7,24,0.31,5,Fog-Rain,281
2013-8-11,80,72,63,64,62,60,95,72,51,30.27,30.23,30.19,10,9,0,14,5,20,0.00,4,Fog,273
2013-8-12,80,72,64,68,63,61,94,74,52,30.21,30.17,30.11,10,9,1,12,5,17,0.60,5,Rain,295
2013-8-13,74,68,63,64,62,57,94,80,63,30.10,30.02,29.96,10,8,0,13,4,24,0.49,6,Fog-Rain,290
2013-8-14,68,62,55,57,50,45,85,65,46,30.20,30.09,30.02,10,10,7,15,6,23,0.00,1,,330
2013-8-15,63,56,48,53,49,44,94,79,62,30.24,30.20,30.17,10,9,0,6,1,,0.00,5,Fog,132
2013-8-16,67,58,49,56,52,48,96,82,53,30.27,30.22,30.19,10,6,0,6,1,,0.00,5,Fog,134
2013-8-17,62,57,52,59,55,51,96,89,76,30.29,30.26,30.23,10,6,0,6,1,,0.17,7,Fog-Rain,87
2013-8-18,69,64,59,64,61,58,96,92,80,30.31,30.27,30.23,10,4,0,6,1,,1.16,8,Fog-Rain,131
2013-8-19,69,65,61,64,62,60,96,92,82,30.29,30.24,30.20,10,8,0,7,0,,0.00,8,Rain,147
2013-8-20,75,68,61,64,62,59,96,86,58,30.31,30.27,30.22,10,6,0,7,1,,0.00,6,Fog-Rain,132
2013-8-21,75,68,61,66,63,60,95,89,70,30.36,30.30,30.25,10,8,0,7,0,,0.00,5,Fog-Rain,134
2013-8-22,78,71,64,63,60,56,93,69,46,30.29,30.24,30.17,10,10,10,13,5,22,0.00,3,,284
2013-8-23,75,68,61,63,60,55,93,75,54,30.22,30.17,30.12,10,9,2,13,4,22,0.08,3,Rain,306
2013-8-24,71,64,58,61,54,47,94,72,43,30.42,30.33,30.23,10,10,7,9,3,,0.00,3,,86
2013-8-25,70,60,51,57,52,49,94,73,48,30.49,30.43,30.40,10,10,4,9,1,,0.00,2,,124
2013-8-26,75,62,50,58,54,49,95,71,42,30.43,30.34,30.25,10,8,0,9,2,,0.00,3,Fog,319
2013-8-27,77,71,65,62,60,57,78,68,53,30.26,30.20,30.16,10,10,7,14,6,23,0.00,2,,294
2013-8-28,79,74,69,63,61,58,76,66,48,30.17,30.12,30.05,10,9,7,25,12,37,0.00,2,,280
2013-8-29,82,74,67,67,62,56,94,67,41,30.16,30.09,30.04,10,9,1,28,13,37,0.74,4,Rain,310
2013-8-30,75,70,64,67,65,63,95,88,72,30.19,30.13,30.08,10,6,0,7,2,,0.07,7,Fog-Rain,137
2013-8-31,78,71,64,65,63,59,95,80,57,30.09,30.06,30.02,10,8,1,16,2,10,0.00,4,Rain,282